Flugplatz Münster-Telgte

Für EDLT sind keine METAR/TAF Berichte vorhanden.
Es werden die Flugwettermeldungen vom Flugplatz Münster Osnabrück in 22 km Entfernung angezeigt.

Bericht für EDDG

vom 07.03. um 01:50 UTC

Wind 2 kt aus 250°

Sichtweite 10 km oder mehr

aufgebrochene Bewölkung in 4000 ft

Temperatur -2.0°C

Taupunkt -2.0°C

Luftfeuchtigkeit 100%

Luftdruck 1028 hPa

keine wesentliche Wetteränderung innerhalb den nächsten 2 Stunden zu erwarten

EDDG 070150Z 25002KT 9999 BKN040 M02/M02 Q1028 NOSIG

Prognose für EDDG

vom 06.03. um 23:00 UTC

Zwischen 00:00 UTC und 08:00 UTC

variable Windrichtung mit 1 kt

Sichtweite 10 km oder mehr

aufgelockert bewölkt in 3500 ft


Zwischen 03:00 UTC und 07:00 UTC zeitweise mit einer Wahrscheinlichkeit von 30%

Sichtweite 700 m

Code: FZFG


Zwischen 03:00 UTC und 08:00 UTC zeitweise

Sichtweite 4000 m

Nebelschwaden


Zwischen 08:00 und 11:00 UTC übergehend zu

Wind 6 kt aus 280°

Sichtweite 10 km oder mehr

aufgelockert bewölkt in 3500 ft

TAF EDDG 062300Z 0700/0724 VRB01KT 9999 SCT035 TEMPO 0703/0708 4000 BCFG PROB30 TEMPO 0703/0707 0700 FZFG BECMG 0708/0711 28006KT
Impressum